Time;durP1;ratioP1;P1;durP2;ratioP2;P2;SDS_P1;SDS_P2;PMS_P1;PMS_P2;Temp;Humidity;BMP_temperature;BMP_pressure;BME280_temperature;BME280_humidity;BME280_pressure;Samples;Min_cycle;Max_cycle;Signal;HPM_P1;HPM_P2
2023/04/30 00:01:10;;;;;;;13.85;7.90;;;7.50;99.90;;;-144.05;75.88;56925.28;5032430;28;20083;-77
2023/04/30 00:03:36;;;;;;;14.40;8.90;;;7.50;99.90;;;-144.05;75.94;56942.28;5013938;28;20093;-77
2023/04/30 00:06:02;;;;;;;14.32;8.68;;;7.50;99.90;;;-144.05;75.76;56929.53;5033000;28;20697;-78
2023/04/30 00:08:29;;;;;;;15.40;9.52;;;7.50;99.90;;;-144.05;76.18;56944.41;5036171;28;20072;-77
2023/04/30 00:10:54;;;;;;;15.82;9.60;;;7.50;99.90;;;-144.05;75.58;56952.91;5036380;28;20021;-78
2023/04/30 00:13:20;;;;;;;19.90;9.02;;;7.50;99.90;;;-144.05;75.48;56942.28;5037666;28;20083;-78
2023/04/30 00:15:46;;;;;;;15.30;9.05;;;7.50;99.90;;;-144.05;75.95;56929.53;5037256;28;20022;-78
2023/04/30 00:18:12;;;;;;;21.00;10.45;;;7.50;99.90;;;-144.05;75.50;56944.41;5019566;28;20462;-78
2023/04/30 00:20:38;;;;;;;16.98;10.35;;;7.50;99.90;;;-144.05;75.94;56918.94;5018973;28;20176;-78
2023/04/30 00:23:04;;;;;;;16.63;9.90;;;7.50;99.90;;;-144.05;75.60;56946.53;5037863;28;20523;-79
2023/04/30 00:25:30;;;;;;;16.00;9.90;;;7.50;99.90;;;-144.05;75.57;56944.41;5038584;28;20026;-78
2023/04/30 00:27:56;;;;;;;13.60;9.45;;;7.30;99.90;;;-144.05;75.69;56933.78;5037668;28;20465;-77
2023/04/30 00:30:21;;;;;;;14.02;9.50;;;7.30;99.90;;;-144.05;75.97;56931.66;5034556;28;20593;-78
2023/04/30 00:32:47;;;;;;;13.50;8.48;;;7.30;99.90;;;-144.05;75.97;56955.03;5035910;28;20048;-79
2023/04/30 00:35:13;;;;;;;12.75;8.75;;;7.20;99.90;;;-144.05;76.11;56946.53;5038480;28;20109;-78
2023/04/30 00:37:39;;;;;;;15.15;8.85;;;7.20;99.90;;;-144.05;76.14;56931.66;5036215;28;20030;-76
2023/04/30 00:40:06;;;;;;;17.88;9.70;;;7.00;99.90;;;-144.05;76.49;56950.78;5035145;28;20124;-77
2023/04/30 00:42:32;;;;;;;17.55;10.18;;;6.90;99.90;;;-144.05;76.90;56946.53;5017448;28;20267;-77
2023/04/30 00:44:58;;;;;;;16.05;9.32;;;6.80;99.90;;;-144.05;77.09;56969.91;5034939;28;20033;-76
2023/04/30 00:47:24;;;;;;;19.75;9.75;;;6.70;99.90;;;-144.05;77.67;56959.28;5017760;28;20029;-79
2023/04/30 00:49:50;;;;;;;16.27;9.80;;;6.60;99.90;;;-144.05;77.46;56950.78;5039581;28;20052;-78
2023/04/30 00:52:16;;;;;;;19.92;9.55;;;6.50;99.90;;;-144.05;77.81;56955.03;5025799;28;20030;-79
2023/04/30 00:54:42;;;;;;;15.25;9.68;;;6.50;99.90;;;-144.05;78.13;56950.78;5038431;28;20025;-79
2023/04/30 00:57:15;;;;;;;14.10;9.07;;;6.40;99.90;;;-144.05;77.92;56965.66;5039574;28;20029;-79
2023/04/30 00:59:41;;;;;;;21.55;10.13;;;6.30;99.90;;;-144.05;78.59;56961.41;5038981;28;20021;-79
2023/04/30 01:02:07;;;;;;;16.60;9.75;;;6.20;99.90;;;-144.05;78.64;56959.28;5039520;28;20355;-78
2023/04/30 01:04:34;;;;;;;17.80;11.38;;;6.10;99.90;;;-144.05;78.73;56963.53;5039238;28;20248;-78
2023/04/30 01:07:02;;;;;;;15.77;9.90;;;6.10;99.90;;;-144.05;79.23;56965.66;5038711;28;20481;-79
2023/04/30 01:09:29;;;;;;;19.35;11.88;;;6.10;99.90;;;-144.05;79.49;56965.66;5038886;28;20029;-79
2023/04/30 01:12:08;;;;;;;16.63;9.55;;;6.10;99.90;;;-144.05;79.07;56957.16;5036794;28;20389;-77
2023/04/30 01:15:00;;;;;;;18.92;11.20;;;5.90;99.90;;;-144.05;79.71;56963.53;5020315;28;20125;-78
2023/04/30 01:18:12;;;;;;;19.60;9.68;;;5.90;99.90;;;-144.05;79.10;56957.16;5018629;28;20036;-79
2023/04/30 01:20:51;;;;;;;14.52;9.75;;;5.80;99.90;;;-144.05;79.22;56963.53;4975239;28;20507;-78
2023/04/30 01:24:15;;;;;;;18.60;10.55;;;5.60;99.90;;;-144.05;79.91;56963.53;5031016;28;20049;-78
2023/04/30 01:27:35;;;;;;;21.90;11.20;;;5.50;99.90;;;-144.05;80.03;56961.41;5018293;28;20032;-77
2023/04/30 01:30:04;;;;;;;20.70;12.65;;;5.50;99.90;;;-144.05;80.25;56972.03;5018082;28;20095;-77
2023/04/30 01:32:30;;;;;;;19.92;11.43;;;5.40;99.90;;;-144.05;80.52;56959.28;5037272;28;20086;-79
2023/04/30 01:34:56;;;;;;;23.55;12.55;;;5.40;99.90;;;-144.05;80.38;56976.28;5038000;28;20116;-79
2023/04/30 01:37:40;;;;;;;22.92;12.98;;;5.40;99.90;;;-144.05;80.49;56965.66;5019791;28;20087;-76
2023/04/30 01:41:05;;;;;;;21.00;12.45;;;5.30;99.90;;;-144.05;81.36;56980.53;5018465;28;20096;-77
2023/04/30 01:44:05;;;;;;;21.85;12.48;;;5.40;99.90;;;-144.05;82.21;56976.28;5019067;28;20048;-77
2023/04/30 01:46:31;;;;;;;25.75;12.43;;;5.50;99.90;;;-144.05;81.59;56976.28;5036701;28;20084;-77
2023/04/30 01:49:26;;;;;;;21.17;12.30;;;5.50;99.90;;;-144.05;81.79;56963.53;5035016;28;20033;-78
2023/04/30 01:52:30;;;;;;;21.73;12.77;;;5.50;99.90;;;-144.05;81.81;56963.53;5017496;28;20051;-77
2023/04/30 01:55:17;;;;;;;21.52;12.07;;;5.40;99.90;;;-144.05;82.12;56959.28;5032574;28;20044;-78
2023/04/30 01:58:04;;;;;;;22.95;12.63;;;5.40;99.90;;;-144.05;82.27;56976.28;5035989;28;20043;-77
2023/04/30 02:00:29;;;;;;;;;;;5.40;99.90;;;-144.05;81.98;56976.28;5036198;28;20477;-79
2023/04/30 02:02:57;;;;;;;19.77;11.85;;;5.30;99.90;;;-144.05;81.92;56974.16;5034739;28;19924;-78
2023/04/30 02:05:23;;;;;;;23.38;12.10;;;5.20;99.90;;;-144.05;82.25;56974.16;5017091;28;20038;-78
2023/04/30 02:07:51;;;;;;;23.92;13.18;;;5.10;99.90;;;-144.05;82.35;56986.91;5018138;28;20055;-78
2023/04/30 02:10:23;;;;;;;24.88;12.68;;;5.00;99.90;;;-144.05;82.52;56965.66;5035523;28;20041;-78
2023/04/30 02:12:49;;;;;;;23.45;13.25;;;5.00;99.90;;;-144.05;82.46;56980.53;5036901;28;20044;-78
2023/04/30 02:15:15;;;;;;;23.38;12.18;;;5.00;99.90;;;-144.05;82.79;56974.16;5021413;28;20026;-79
2023/04/30 02:17:41;;;;;;;19.20;11.98;;;5.00;99.90;;;-144.05;82.67;56959.28;5037926;28;20022;-76
2023/04/30 02:20:08;;;;;;;17.70;11.68;;;5.00;99.90;;;-144.05;82.94;56976.28;5036216;28;20030;-78
2023/04/30 02:22:35;;;;;;;23.33;12.90;;;4.90;99.90;;;-144.05;82.68;56961.41;5034986;28;20022;-77
2023/04/30 02:25:02;;;;;;;21.83;12.27;;;4.90;99.90;;;-144.05;82.83;56963.53;5035219;28;20489;-78
2023/04/30 02:27:31;;;;;;;22.77;12.65;;;4.90;99.90;;;-144.05;82.89;56972.03;5035796;28;20037;-79
2023/04/30 02:29:59;;;;;;;25.20;12.57;;;4.80;99.90;;;-144.05;82.97;56976.28;5035775;28;20537;-78
2023/04/30 02:32:25;;;;;;;19.65;12.10;;;4.80;99.90;;;-144.05;82.81;56963.53;5034001;28;20037;-78
2023/04/30 02:34:51;;;;;;;21.27;11.85;;;4.80;99.90;;;-144.05;82.77;56959.28;5017763;28;20052;-78
2023/04/30 02:37:17;;;;;;;19.02;11.77;;;4.80;99.90;;;-144.05;82.49;56967.78;5034885;28;20544;-77
2023/04/30 02:39:43;;;;;;;16.10;10.48;;;4.70;99.90;;;-144.05;83.04;56989.00;5034846;28;20444;-79
2023/04/30 02:42:09;;;;;;;24.73;12.55;;;4.60;99.90;;;-144.05;82.99;56993.25;5017584;28;20116;-79
2023/04/30 02:44:35;;;;;;;20.38;12.85;;;4.60;99.90;;;-144.05;83.61;56946.53;5034049;28;20041;-78
2023/04/30 02:47:01;;;;;;;25.70;14.52;;;4.70;99.90;;;-144.05;83.41;56961.41;5034157;28;20029;-78
2023/04/30 02:49:28;;;;;;;26.15;13.50;;;4.80;99.90;;;-144.05;83.55;56972.03;5016773;28;20037;-78
2023/04/30 02:51:54;;;;;;;23.33;13.80;;;4.90;99.90;;;-144.05;83.41;56982.66;5035419;28;20325;-79
2023/04/30 02:54:20;;;;;;;24.88;15.40;;;4.90;99.90;;;-144.05;83.94;56938.03;5034533;28;20057;-80
2023/04/30 02:56:46;;;;;;;30.00;16.23;;;5.00;99.90;;;-144.05;84.22;56967.78;5034473;28;20113;-77
2023/04/30 02:59:12;;;;;;;29.20;16.20;;;5.10;99.90;;;-144.05;84.03;56938.03;5015633;28;20240;-77
2023/04/30 03:01:39;;;;;;;24.70;14.48;;;5.20;99.90;;;-144.05;83.94;56976.28;5016048;28;20036;-78
2023/04/30 03:04:05;;;;;;;28.45;15.25;;;5.20;99.90;;;-144.05;84.09;56959.28;5026914;22;20251;-78
2023/04/30 03:06:32;;;;;;;25.80;15.00;;;5.20;99.90;;;-144.05;84.24;56967.78;5014101;28;20437;-78
2023/04/30 03:08:58;;;;;;;24.83;15.93;;;5.20;99.90;;;-144.05;84.08;56974.16;5012576;28;20033;-78
2023/04/30 03:11:24;;;;;;;24.98;14.60;;;5.20;99.90;;;-144.05;84.03;56963.53;5013551;28;20033;-78
2023/04/30 03:13:50;;;;;;;23.85;14.25;;;5.10;99.90;;;-144.05;84.10;56965.66;5013740;28;20026;-78
2023/04/30 03:16:19;;;;;;;30.88;16.38;;;5.10;99.90;;;-144.05;84.48;56969.91;5013509;28;20029;-78
2023/04/30 03:18:47;;;;;;;28.30;16.52;;;5.20;99.90;;;-144.05;84.50;56957.16;5014736;28;20044;-78
2023/04/30 03:21:14;;;;;;;24.92;14.38;;;5.20;99.90;;;-144.05;84.29;56959.28;4996414;28;20506;-77
2023/04/30 03:23:40;;;;;;;27.92;15.73;;;5.20;99.90;;;-144.05;84.26;56963.53;5014012;28;20040;-78
2023/04/30 03:26:07;;;;;;;18.58;11.65;;;5.10;99.90;;;-144.05;84.04;56972.03;5015027;28;20072;-78
2023/04/30 03:28:34;;;;;;;20.02;11.38;;;5.00;99.90;;;-144.05;83.60;56969.91;4998224;28;20110;-78
2023/04/30 03:31:04;;;;;;;17.95;11.07;;;4.70;99.90;;;-144.05;83.42;56986.91;4996625;28;20033;-78
2023/04/30 03:33:33;;;;;;;17.98;11.35;;;4.50;99.90;;;-144.05;83.81;56984.78;5013612;28;20030;-77
2023/04/30 03:35:59;;;;;;;20.52;12.82;;;4.40;99.90;;;-144.05;84.02;56959.28;5013316;28;20033;-78
2023/04/30 03:38:25;;;;;;;19.73;11.68;;;4.30;99.90;;;-144.05;83.87;56959.28;4996416;28;20502;-78
2023/04/30 03:40:51;;;;;;;23.13;14.00;;;4.20;99.90;;;-144.05;84.14;56999.63;5014455;28;20026;-77
2023/04/30 03:43:17;;;;;;;29.42;15.68;;;4.20;99.90;;;-144.05;84.10;56978.41;5020009;28;20453;-78
2023/04/30 03:45:43;;;;;;;26.20;15.02;;;4.20;99.90;;;-144.05;84.38;56984.78;5002575;28;20037;-78
2023/04/30 03:48:08;;;;;;;29.33;16.30;;;4.30;99.90;;;-144.05;84.47;56963.53;5020073;28;20030;-77
2023/04/30 03:50:34;;;;;;;29.60;15.95;;;4.40;99.90;;;-144.05;84.28;56967.78;5019813;28;20163;-78
2023/04/30 03:53:00;;;;;;;20.83;13.10;;;4.40;99.90;;;-144.05;83.54;56982.66;5020473;28;20048;-78
2023/04/30 03:55:26;;;;;;;25.33;15.27;;;4.30;99.90;;;-144.05;83.80;56965.66;5019538;28;20037;-78
2023/04/30 03:57:53;;;;;;;32.75;16.48;;;4.30;99.90;;;-144.05;84.09;56969.91;5002559;28;20473;-78
2023/04/30 04:00:19;;;;;;;29.98;16.45;;;4.30;99.90;;;-144.05;84.22;56976.28;5019859;28;20056;-77
2023/04/30 04:02:45;;;;;;;25.83;15.85;;;4.40;99.90;;;-144.05;84.11;56969.91;5018955;28;20029;-76
2023/04/30 04:05:11;;;;;;;32.83;18.75;;;4.50;99.90;;;-144.05;84.08;56982.66;5019540;28;20500;-78
2023/04/30 04:07:37;;;;;;;34.50;19.13;;;4.50;99.90;;;-144.05;84.42;56961.41;5019720;28;20104;-78
2023/04/30 04:10:03;;;;;;;39.28;22.52;;;4.60;99.90;;;-144.05;84.88;56957.16;5002233;28;20103;-78
2023/04/30 04:12:29;;;;;;;39.72;22.15;;;4.70;99.90;;;-144.05;85.17;56980.53;5002184;28;20034;-77
2023/04/30 04:14:55;;;;;;;50.15;26.85;;;4.80;99.90;;;-144.05;85.86;56959.28;5019968;28;20121;-77
2023/04/30 04:17:21;;;;;;;40.55;21.35;;;5.00;99.90;;;-144.05;85.38;56972.03;5019670;28;20032;-78
2023/04/30 04:19:47;;;;;;;45.38;24.88;;;4.90;99.90;;;-144.05;85.33;56980.53;5002000;28;20371;-77
2023/04/30 04:22:12;;;;;;;40.72;23.73;;;5.00;99.90;;;-144.05;85.58;56980.53;5040840;28;20013;-76
2023/04/30 04:24:38;;;;;;;52.13;27.10;;;5.00;99.90;;;-144.05;86.15;56967.78;5041797;28;20018;-75
2023/04/30 04:27:04;;;;;;;46.85;26.63;;;5.10;99.90;;;-144.05;85.44;56976.28;5042107;28;20053;-76
2023/04/30 04:29:31;;;;;;;39.65;23.17;;;5.10;99.90;;;-144.05;85.43;56978.41;5024722;28;20021;-75
2023/04/30 04:31:59;;;;;;;40.25;24.95;;;5.10;99.90;;;-144.05;85.53;56984.78;5041839;28;20030;-74
2023/04/30 04:34:25;;;;;;;42.50;24.70;;;5.10;99.90;;;-144.05;85.64;56963.53;5041282;28;20037;-76
2023/04/30 04:36:51;;;;;;;41.58;24.48;;;5.00;99.90;;;-144.05;85.84;56963.53;5040221;28;20025;-77
2023/04/30 04:39:17;;;;;;;50.55;26.23;;;5.10;99.90;;;-144.05;86.65;56963.53;5028460;28;20034;-76
2023/04/30 04:41:43;;;;;;;41.85;24.38;;;5.30;99.90;;;-144.05;86.50;56957.16;5023268;28;20045;-76
2023/04/30 04:44:09;;;;;;;47.38;23.95;;;5.40;99.90;;;-144.05;86.60;56963.53;5002568;28;20037;-78
2023/04/30 04:46:37;;;;;;;41.88;24.27;;;5.50;99.90;;;-144.05;86.40;56972.03;5020524;28;20033;-78
2023/04/30 04:49:03;;;;;;;43.80;23.90;;;5.60;99.90;;;-144.05;86.24;56959.28;5018690;28;20025;-78
2023/04/30 04:51:29;;;;;;;41.85;23.25;;;5.60;99.90;;;-144.05;85.97;56948.66;5003689;28;20069;-78
2023/04/30 04:53:55;;;;;;;40.97;22.17;;;5.60;99.90;;;-144.05;86.04;56955.03;5017255;28;20050;-78
2023/04/30 04:56:21;;;;;;;37.22;24.27;;;5.70;99.90;;;-144.05;86.07;56963.53;5017661;28;20049;-78
2023/04/30 04:58:46;;;;;;;43.03;26.35;;;5.70;99.90;;;-144.05;86.15;56955.03;5016230;28;20022;-76
2023/04/30 05:01:12;;;;;;;45.50;27.73;;;5.90;99.90;;;-144.05;86.15;56952.91;4999480;28;20026;-76
2023/04/30 05:03:38;;;;;;;46.83;25.90;;;5.90;99.90;;;-144.05;86.04;56959.28;5017045;28;20516;-78
2023/04/30 05:06:05;;;;;;;44.22;24.90;;;5.90;99.90;;;-144.05;85.80;56972.03;5016436;28;20401;-75
2023/04/30 05:08:31;;;;;;;40.38;24.38;;;6.00;99.90;;;-144.05;85.54;56946.53;4998437;28;20124;-76
2023/04/30 05:10:57;;;;;;;40.75;24.73;;;6.10;99.90;;;-144.05;85.58;56933.78;5017540;28;20057;-80
2023/04/30 05:13:23;;;;;;;33.90;22.40;;;6.10;99.90;;;-144.05;85.83;56944.41;4999883;28;20474;-77
2023/04/30 05:15:52;;;;;;;39.70;23.85;;;6.20;99.90;;;-144.05;84.63;56950.78;4999670;28;20187;-77
2023/04/30 05:18:19;;;;;;;29.08;20.75;;;6.30;99.90;;;-144.05;84.04;56961.41;5016694;28;20451;-80
2023/04/30 05:20:45;;;;;;;31.88;20.20;;;6.40;99.90;;;-144.05;83.42;56944.41;4998243;28;20053;-78
2023/04/30 05:23:11;;;;;;;32.30;20.42;;;6.50;99.90;;;-144.05;83.03;56948.66;4999317;28;20509;-77
2023/04/30 05:25:38;;;;;;;30.90;18.10;;;6.60;99.90;;;-144.05;82.24;56942.28;5017302;28;20072;-77
2023/04/30 05:28:04;;;;;;;30.80;18.70;;;6.80;99.90;;;-144.05;81.71;56940.16;5016215;28;20437;-78
2023/04/30 05:30:30;;;;;;;26.00;15.88;;;6.90;99.90;;;-144.05;81.06;56955.03;5016084;28;20048;-78
2023/04/30 05:32:57;;;;;;;23.48;15.00;;;7.00;99.90;;;-144.05;79.97;56946.53;5014493;28;20029;-77
2023/04/30 05:35:23;;;;;;;20.25;13.02;;;7.20;99.90;;;-144.05;78.41;56955.03;5017187;28;20053;-78
2023/04/30 05:37:49;;;;;;;19.17;12.95;;;7.30;99.90;;;-144.05;76.68;56969.91;5015524;28;20041;-75
2023/04/30 05:40:16;;;;;;;18.48;12.15;;;7.50;99.90;;;-144.05;76.02;56938.03;4997096;28;20451;-76
2023/04/30 05:42:45;;;;;;;19.95;12.02;;;7.70;99.90;;;-144.05;75.49;56935.91;5015608;28;20452;-78
2023/04/30 05:45:13;;;;;;;17.52;11.27;;;7.80;99.90;;;-144.05;75.18;56935.91;4998228;28;20405;-78
2023/04/30 05:47:40;;;;;;;18.00;11.45;;;8.00;99.90;;;-144.05;74.33;56908.31;5014493;28;20087;-78
2023/04/30 05:50:08;;;;;;;19.65;11.10;;;8.20;99.90;;;-144.05;73.22;56927.41;5015592;28;20084;-77
2023/04/30 05:52:34;;;;;;;16.88;10.65;;;8.40;99.90;;;-144.05;70.93;56925.28;5015206;28;20454;-78
2023/04/30 05:55:00;;;;;;;17.23;9.88;;;8.60;99.90;;;-144.05;70.29;56938.03;5014987;28;20025;-76
2023/04/30 05:57:26;;;;;;;16.50;10.00;;;8.80;99.90;;;-144.05;68.94;56921.06;5015709;28;20025;-78
2023/04/30 05:59:53;;;;;;;15.52;10.48;;;9.00;99.90;;;-144.05;68.71;56927.41;4995913;28;20481;-73
2023/04/30 06:02:19;;;;;;;13.80;9.70;;;9.10;99.90;;;-144.05;67.97;56916.81;5016548;28;20022;-78
2023/04/30 06:04:45;;;;;;;19.27;9.48;;;9.30;99.90;;;-144.05;67.66;56918.94;5016156;28;20517;-78
2023/04/30 06:07:10;;;;;;;16.75;9.88;;;9.40;99.90;;;-144.05;67.02;56925.28;5016366;28;20064;-78
2023/04/30 06:09:36;;;;;;;14.90;9.55;;;9.50;99.90;;;-144.05;66.88;56923.19;5016995;28;20069;-79
2023/04/30 06:12:02;;;;;;;14.63;9.20;;;9.70;99.90;;;-144.05;67.29;56950.78;5018393;28;20112;-78
2023/04/30 06:14:29;;;;;;;12.30;9.45;;;9.90;99.90;;;-144.05;66.97;56935.91;5017449;28;20029;-79
2023/04/30 06:16:55;;;;;;;15.25;8.68;;;10.10;99.90;;;-144.05;65.40;56925.28;5017241;28;20041;-78
2023/04/30 06:19:20;;;;;;;14.13;9.13;;;10.20;99.90;;;-144.05;65.87;56933.78;5016523;28;20029;-78
2023/04/30 06:21:46;;;;;;;18.63;9.68;;;10.30;99.90;;;-144.05;66.37;56916.81;5017500;28;20030;-78
2023/04/30 06:24:12;;;;;;;16.65;9.20;;;10.30;99.90;;;-144.05;65.85;56929.53;5016192;28;20493;-77
2023/04/30 06:26:38;;;;;;;13.20;8.70;;;10.30;99.90;;;-144.05;65.79;56927.41;5016521;28;20068;-75
2023/04/30 06:29:04;;;;;;;17.40;8.90;;;10.50;99.90;;;-144.05;66.62;56938.03;5016752;28;20026;-79
2023/04/30 06:31:30;;;;;;;15.35;9.25;;;10.60;99.90;;;-144.05;65.08;56925.28;5016180;28;20033;-77
2023/04/30 06:33:56;;;;;;;17.70;9.07;;;10.80;99.90;;;-144.05;65.43;56912.56;5017054;28;20553;-79
2023/04/30 06:36:21;;;;;;;15.85;9.68;;;10.90;99.90;;;-144.05;64.94;56893.44;5015780;28;20076;-77
2023/04/30 06:38:47;;;;;;;11.52;8.18;;;11.10;99.90;;;-144.05;64.79;56921.06;5014565;28;20030;-75
2023/04/30 06:41:15;;;;;;;17.23;8.75;;;11.20;99.90;;;-144.05;62.95;56908.31;5015288;28;20022;-77
2023/04/30 06:43:42;;;;;;;14.65;9.52;;;11.30;99.90;;;-144.05;63.20;56916.81;5015857;28;20087;-76
2023/04/30 06:46:08;;;;;;;15.00;9.25;;;11.40;99.90;;;-144.05;63.24;56927.41;5016621;28;20030;-77
2023/04/30 06:48:34;;;;;;;12.13;8.93;;;11.40;99.90;;;-144.05;62.65;56910.44;5016516;28;20029;-77
2023/04/30 06:50:59;;;;;;;11.68;8.48;;;11.40;99.90;;;-144.05;62.53;56929.53;5015659;28;20049;-78
2023/04/30 06:53:25;;;;;;;14.10;8.38;;;11.50;99.90;;;-144.05;61.32;56908.31;4996878;28;20025;-76
2023/04/30 06:55:51;;;;;;;15.80;8.70;;;11.60;99.90;;;-144.05;60.54;56904.06;5015676;28;20457;-77
2023/04/30 06:58:18;;;;;;;11.23;8.43;;;11.80;99.90;;;-144.05;61.05;56897.69;5015796;28;20104;-77
2023/04/30 07:00:44;;;;;;;14.32;9.10;;;12.10;99.90;;;-144.05;59.00;56906.19;5016258;28;20088;-77
2023/04/30 07:03:10;;;;;;;15.35;9.95;;;12.20;99.90;;;-144.05;58.13;56914.69;5015680;28;20444;-77
2023/04/30 07:05:36;;;;;;;13.45;9.43;;;12.50;99.90;;;-144.05;56.92;56929.53;5015565;28;20033;-75
2023/04/30 07:08:05;;;;;;;14.70;8.85;;;12.60;99.90;;;-144.05;57.39;56927.41;4998817;28;20034;-79
2023/04/30 07:10:31;;;;;;;13.55;8.25;;;12.80;99.90;;;-144.05;56.74;56927.41;5016017;28;20251;-75
2023/04/30 07:12:58;;;;;;;13.00;8.88;;;13.00;99.90;;;-144.05;56.13;56912.56;5014873;28;20029;-75
2023/04/30 07:15:24;;;;;;;12.27;7.97;;;13.30;99.90;;;-144.05;54.11;56908.31;4996279;28;20037;-78
2023/04/30 07:17:50;;;;;;;12.25;8.32;;;13.60;99.90;;;-144.05;54.51;56904.06;5013584;28;20030;-78
2023/04/30 07:20:16;;;;;;;14.63;8.48;;;13.70;99.90;;;-144.05;53.28;56912.56;5014057;28;20026;-76
2023/04/30 07:22:44;;;;;;;11.13;7.57;;;13.90;99.90;;;-144.05;53.07;56916.81;5014766;28;20397;-76
2023/04/30 07:25:14;;;;;;;11.75;8.52;;;14.20;99.90;;;-144.05;50.85;56925.28;5015664;28;20033;-77
2023/04/30 07:27:40;;;;;;;13.90;7.45;;;14.40;99.90;;;-144.05;50.38;56899.81;5016085;28;20025;-77
2023/04/30 07:30:09;;;;;;;12.57;7.93;;;14.40;99.90;;;-144.05;50.21;56908.31;5014365;28;20025;-76
2023/04/30 07:32:36;;;;;;;12.35;8.45;;;14.60;99.90;;;-144.05;49.16;56916.81;5014382;28;20087;-76
2023/04/30 07:35:03;;;;;;;13.43;9.10;;;14.80;99.90;;;-144.05;50.07;56893.44;5015816;28;20026;-79
2023/04/30 07:37:30;;;;;;;10.35;7.75;;;14.70;99.90;;;-144.05;49.85;56889.19;5015454;28;20041;-78
2023/04/30 07:39:57;;;;;;;12.48;8.02;;;14.90;99.90;;;-144.05;48.62;56929.53;5014050;28;20037;-75
2023/04/30 07:42:23;;;;;;;14.32;8.25;;;14.90;99.90;;;-144.05;48.25;56897.69;5014764;28;20026;-78
2023/04/30 07:44:49;;;;;;;12.18;8.07;;;14.70;99.90;;;-144.05;49.74;56895.56;4995667;28;20045;-75
2023/04/30 07:47:14;;;;;;;12.75;7.95;;;14.60;99.90;;;-144.05;48.22;56916.81;5014009;28;20029;-77
2023/04/30 07:49:40;;;;;;;9.05;7.40;;;14.80;99.90;;;-144.05;48.36;56933.78;5013310;28;20022;-77
2023/04/30 07:52:09;;;;;;;13.75;7.50;;;15.10;99.90;;;-144.05;48.86;56906.19;5014712;28;20072;-78
2023/04/30 07:54:37;;;;;;;12.50;7.93;;;15.00;99.90;;;-144.05;48.83;56891.31;5012740;28;20018;-78
2023/04/30 07:57:05;;;;;;;11.65;8.00;;;14.90;99.90;;;-144.05;48.85;56914.69;5014232;28;20569;-78
2023/04/30 07:59:31;;;;;;;10.63;7.45;;;14.90;99.90;;;-144.05;48.81;56895.56;4996054;28;20527;-77
2023/04/30 08:01:57;;;;;;;12.48;7.80;;;14.90;99.90;;;-144.05;49.36;56910.44;5014733;28;20496;-77
2023/04/30 08:04:24;;;;;;;9.23;7.28;;;15.00;99.90;;;-144.05;48.40;56912.56;5015491;28;20061;-76
2023/04/30 08:06:50;;;;;;;13.48;8.13;;;15.40;99.90;;;-144.05;48.01;56899.81;5016076;28;20049;-79
2023/04/30 08:09:16;;;;;;;12.65;8.23;;;15.60;99.90;;;-144.05;46.82;56904.06;5014698;28;20038;-78
2023/04/30 08:11:41;;;;;;;10.25;7.57;;;15.60;99.90;;;-144.05;48.13;56916.81;5013260;28;20456;-76
2023/04/30 08:14:07;;;;;;;12.20;6.95;;;15.60;99.90;;;-144.05;46.74;56925.28;4997595;28;20061;-75
2023/04/30 08:16:33;;;;;;;10.25;6.97;;;15.90;99.90;;;-144.05;45.97;56906.19;5015580;28;20061;-76
2023/04/30 08:18:59;;;;;;;9.23;6.28;;;15.90;99.90;;;-144.05;45.06;56908.31;4997666;28;20030;-78
2023/04/30 08:21:30;;;;;;;7.07;5.50;;;16.20;99.90;;;-144.05;43.92;56906.19;4998689;28;20084;-77
2023/04/30 08:23:56;;;;;;;9.60;6.75;;;16.40;99.90;;;-144.05;43.72;56931.66;5016519;28;20034;-78
2023/04/30 08:26:22;;;;;;;11.65;6.97;;;16.70;99.90;;;-144.05;42.77;56923.19;5014811;28;20149;-77
2023/04/30 08:28:48;;;;;;;7.22;5.53;;;16.70;99.90;;;-144.05;42.07;56918.94;5017120;28;20084;-77
2023/04/30 08:31:14;;;;;;;7.53;5.32;;;16.60;99.90;;;-144.05;43.42;56908.31;5018175;28;20049;-79
2023/04/30 08:33:40;;;;;;;9.63;5.95;;;16.20;99.90;;;-144.05;42.81;56921.06;5017614;28;20041;-77
2023/04/30 08:36:06;;;;;;;8.68;5.53;;;16.30;99.90;;;-144.05;42.34;56923.19;5017949;28;20026;-76
2023/04/30 08:38:32;;;;;;;10.77;6.93;;;16.40;99.90;;;-144.05;43.93;56921.06;5017558;28;20034;-77
2023/04/30 08:41:12;;;;;;;11.63;7.38;;;16.10;99.90;;;-144.05;43.51;56946.53;4999775;28;20062;-77
2023/04/30 08:43:40;;;;;;;10.85;5.68;;;16.50;99.90;;;-144.05;41.85;56929.53;5017342;28;20026;-76
2023/04/30 08:46:07;;;;;;;10.40;5.43;;;16.60;99.90;;;-144.05;42.36;56927.41;5017581;28;20114;-78
2023/04/30 08:48:34;;;;;;;7.88;4.88;;;16.70;99.90;;;-144.05;41.95;56942.28;5017050;28;20434;-77
2023/04/30 08:51:04;;;;;;;9.10;4.53;;;17.00;99.90;;;-144.05;39.38;56933.78;5017315;28;20374;-78
2023/04/30 08:53:35;;;;;;;8.15;4.45;;;17.10;99.90;;;-144.05;40.32;56912.56;5016880;28;20052;-78
2023/04/30 08:56:03;;;;;;;7.10;4.65;;;17.00;99.90;;;-144.05;41.14;56929.53;5016341;28;20088;-78
2023/04/30 08:58:29;;;;;;;7.05;5.70;;;17.10;99.90;;;-144.05;42.36;56895.56;5017423;28;20125;-77
2023/04/30 09:00:58;;;;;;;8.73;5.18;;;17.20;99.90;;;-144.05;40.64;56918.94;4999499;28;20034;-78
2023/04/30 09:03:25;;;;;;;7.97;4.97;;;17.20;99.90;;;-144.05;39.79;56931.66;5017283;28;20486;-78
2023/04/30 09:05:51;;;;;;;8.23;5.80;;;17.40;99.90;;;-144.05;41.17;56935.91;4999149;28;20034;-77
2023/04/30 09:08:38;;;;;;;8.40;6.00;;;17.50;99.90;;;-144.05;39.62;56918.94;5017412;28;20026;-76
2023/04/30 09:11:24;;;;;;;9.07;5.78;;;17.70;99.90;;;-144.05;38.72;56944.41;5016430;28;20038;-76
2023/04/30 09:13:58;;;;;;;9.48;5.40;;;17.80;99.90;;;-144.05;40.14;56921.06;5016261;28;20437;-76
2023/04/30 09:16:44;;;;;;;6.32;4.78;;;17.50;99.90;;;-144.05;38.70;56927.41;5017053;28;20112;-76
2023/04/30 09:19:28;;;;;;;6.70;4.60;;;17.80;99.90;;;-144.05;39.29;56929.53;5017884;28;20026;-76
2023/04/30 09:21:55;;;;;;;7.13;4.97;;;17.80;99.90;;;-144.05;39.20;56927.41;5017272;28;20030;-78
2023/04/30 09:24:22;;;;;;;7.65;4.60;;;17.80;99.90;;;-144.05;39.77;56948.66;5017220;28;20140;-79
2023/04/30 09:26:50;;;;;;;7.68;5.85;;;17.50;99.90;;;-144.05;40.10;56923.19;5016681;28;20092;-78
2023/04/30 09:29:16;;;;;;;9.18;6.10;;;17.60;99.90;;;-144.05;40.60;56933.78;5016394;28;20403;-77
2023/04/30 09:31:46;;;;;;;7.13;5.20;;;17.70;99.90;;;-144.05;39.75;56948.66;5015746;28;20136;-77
2023/04/30 09:34:13;;;;;;;9.43;4.93;;;17.80;99.90;;;-144.05;39.88;56916.81;4997854;28;20037;-76
2023/04/30 09:36:55;;;;;;;6.90;5.28;;;18.00;99.90;;;-144.05;38.19;56944.41;4998047;28;20053;-78
2023/04/30 09:39:21;;;;;;;5.32;4.20;;;18.10;99.90;;;-144.05;37.94;56938.03;5015188;28;20026;-77
2023/04/30 09:41:50;;;;;;;7.82;4.50;;;18.40;99.90;;;-144.05;37.63;56914.69;5018001;28;20025;-77
2023/04/30 09:44:31;;;;;;;9.63;4.57;;;18.60;99.90;;;-144.05;37.62;56923.19;5016554;28;20032;-77
2023/04/30 09:46:57;;;;;;;7.57;4.22;;;18.60;99.90;;;-144.05;39.20;56942.28;5017318;28;20144;-77
2023/04/30 09:49:25;;;;;;;5.53;4.30;;;18.50;99.90;;;-144.05;38.44;56967.78;5015930;28;20037;-78
2023/04/30 09:52:00;;;;;;;5.80;4.15;;;18.60;99.90;;;-144.05;37.86;56918.94;5016343;28;20196;-77
2023/04/30 09:54:31;;;;;;;7.60;4.43;;;18.30;99.90;;;-144.05;37.73;56957.16;5016128;28;20113;-78
2023/04/30 09:57:01;;;;;;;5.97;4.13;;;18.60;99.30;;;-144.05;37.16;56942.28;5016290;28;20364;-77
2023/04/30 09:59:34;;;;;;;6.25;4.10;;;18.60;99.80;;;-144.05;37.19;56944.41;5018158;28;20021;-78
2023/04/30 10:02:06;;;;;;;8.20;5.43;;;18.60;99.90;;;-144.05;36.80;56929.53;5017762;28;20018;-77
2023/04/30 10:04:40;;;;;;;8.40;5.45;;;18.60;99.40;;;-144.05;36.94;56940.16;4998778;28;20448;-76
2023/04/30 10:07:23;;;;;;;4.35;3.67;;;18.60;98.40;;;-144.05;37.63;56957.16;5016058;28;20040;-77
2023/04/30 10:10:08;;;;;;;5.43;4.30;;;18.60;99.40;;;-144.05;37.36;56931.66;5015503;28;20128;-74